createdAt,value
2023-04-11T00:04:39.030Z,1.42
2023-04-11T00:09:40.791Z,0.90
2023-04-11T00:14:46.234Z,0.57
2023-04-11T00:19:48.505Z,0.68
2023-04-11T00:24:50.545Z,0.50
2023-04-11T00:29:52.866Z,0.50
2023-04-11T00:34:55.236Z,0.40
2023-04-11T00:39:56.905Z,0.40
2023-04-11T00:44:58.238Z,0.40
2023-04-11T00:49:59.719Z,0.55
2023-04-11T00:55:04.289Z,0.38
2023-04-11T01:00:09.752Z,0.45
2023-04-11T01:05:18.034Z,0.30
2023-04-11T01:10:19.519Z,0.30
2023-04-11T01:15:21.407Z,0.57
2023-04-11T01:20:22.907Z,0.32
2023-04-11T01:25:24.973Z,0.30
2023-04-11T01:30:26.542Z,0.20
2023-04-11T01:35:28.144Z,0.28
2023-04-11T01:40:31.349Z,0.25
2023-04-11T01:45:33.001Z,0.15
2023-04-11T01:50:34.693Z,0.10
2023-04-11T01:55:36.126Z,0.17
2023-04-11T02:00:38.425Z,0.30
2023-04-11T02:05:44.628Z,0.20
2023-04-11T02:10:51.390Z,0.40
2023-04-11T02:16:10.407Z,0.50
2023-04-11T02:21:17.468Z,0.20
2023-04-11T02:26:24.907Z,0.38
2023-04-11T02:31:27.677Z,0.28
2023-04-11T02:36:30.164Z,0.40
2023-04-11T02:41:34.913Z,0.77
2023-04-11T02:46:36.506Z,0.30
2023-04-11T02:51:37.968Z,0.20
2023-04-11T02:56:39.364Z,0.43
2023-04-11T03:01:41.629Z,0.20
2023-04-11T03:06:43.112Z,0.20
2023-04-11T03:11:46.927Z,0.30
2023-04-11T03:16:48.828Z,0.30
2023-04-11T03:21:50.421Z,0.20
2023-04-11T03:26:52.004Z,0.55
2023-04-11T03:31:53.347Z,0.30
2023-04-11T03:36:54.868Z,0.40
2023-04-11T03:41:56.257Z,0.32
2023-04-11T03:46:57.738Z,0.30
2023-04-11T03:51:59.287Z,0.30
2023-04-11T03:57:01.060Z,0.50
2023-04-11T04:02:02.644Z,0.45
2023-04-11T04:07:04.142Z,0.40
2023-04-11T04:12:05.788Z,0.30
2023-04-11T04:17:08.228Z,0.57
2023-04-11T04:22:17.456Z,0.30
2023-04-11T04:27:18.874Z,0.70
2023-04-11T04:32:23.886Z,0.30
2023-04-11T04:37:25.917Z,0.47
2023-04-11T04:42:29.110Z,0.50
2023-04-11T04:47:33.389Z,0.68
2023-04-11T04:52:34.965Z,0.43
2023-04-11T04:57:36.354Z,0.50
2023-04-11T05:02:38.093Z,0.60
2023-04-11T05:07:40.316Z,0.40
2023-04-11T05:12:41.742Z,0.30
2023-04-11T05:17:43.182Z,0.50
2023-04-11T05:22:44.604Z,0.60
2023-04-11T05:27:46.078Z,0.43
2023-04-11T05:32:47.737Z,0.63
2023-04-11T05:37:49.263Z,0.57
2023-04-11T05:42:51.016Z,0.40
2023-04-11T05:47:52.433Z,0.50
2023-04-11T05:52:53.800Z,0.55
2023-04-11T05:57:55.436Z,0.68
2023-04-11T06:02:57.538Z,0.65
2023-04-11T06:07:59.910Z,0.57
2023-04-11T06:13:01.690Z,1.10
2023-04-11T06:18:03.355Z,0.90
2023-04-11T06:23:04.903Z,0.82
2023-04-11T06:28:06.541Z,1.40
2023-04-11T06:33:07.941Z,1.02
2023-04-11T06:38:09.342Z,1.38
2023-04-11T06:43:11.223Z,1.05
2023-04-11T06:48:13.743Z,1.10
2023-04-11T06:53:15.201Z,0.88
2023-04-11T06:58:16.941Z,1.15
2023-04-11T07:03:19.801Z,1.70
2023-04-11T07:08:21.434Z,0.90
2023-04-11T07:13:22.799Z,1.92
2023-04-11T07:18:25.867Z,1.60
2023-04-11T07:23:28.579Z,2.17
2023-04-11T07:28:31.245Z,0.90
2023-04-11T07:33:32.582Z,0.80
2023-04-11T07:38:34.361Z,1.33
2023-04-11T07:43:36.310Z,1.20
2023-04-11T07:48:37.638Z,0.88
2023-04-11T07:53:39.018Z,1.13
2023-04-11T07:58:41.324Z,1.35
2023-04-11T08:03:43.161Z,0.85
2023-04-11T08:08:45.903Z,1.15
2023-04-11T08:13:47.401Z,0.90
2023-04-11T08:18:49.050Z,1.25
2023-04-11T08:23:53.268Z,0.82
2023-04-11T08:28:54.674Z,1.30
2023-04-11T08:33:59.147Z,1.10
2023-04-11T08:39:01.903Z,1.08
2023-04-11T08:44:04.095Z,1.63
2023-04-11T08:49:05.479Z,0.88
2023-04-11T08:54:07.660Z,1.13
2023-04-11T08:59:09.035Z,1.30
2023-04-11T09:04:11.416Z,1.00
2023-04-11T09:09:29.080Z,0.82
2023-04-11T09:14:31.708Z,0.95
2023-04-11T09:19:35.089Z,0.93
2023-04-11T09:24:37.856Z,0.70
2023-04-11T09:29:48.090Z,1.02
2023-04-11T09:34:49.634Z,1.13
2023-04-11T09:39:59.602Z,0.80
2023-04-11T09:45:02.156Z,0.55
2023-04-11T09:50:03.651Z,0.52
2023-04-11T09:55:08.339Z,1.10
2023-04-11T10:00:17.123Z,0.77
2023-04-11T10:05:20.164Z,0.73
2023-04-11T10:10:23.722Z,0.80
2023-04-11T10:15:25.143Z,0.93
2023-04-11T10:20:36.002Z,1.20
2023-04-11T10:25:59.052Z,1.70
2023-04-11T10:31:06.995Z,0.90
2023-04-11T10:36:12.272Z,0.80
2023-04-11T10:41:16.912Z,0.50
2023-04-11T10:46:22.910Z,0.55
2023-04-11T10:51:26.783Z,0.60
2023-04-11T10:56:40.445Z,0.52
2023-04-11T11:01:48.990Z,0.50
2023-04-11T11:06:57.392Z,0.40
2023-04-11T11:12:15.229Z,1.02
2023-04-11T11:17:17.110Z,0.60
2023-04-11T11:22:25.655Z,1.17
2023-04-11T11:27:27.279Z,0.85
2023-04-11T11:32:29.005Z,0.47
2023-04-11T11:37:30.795Z,0.60
2023-04-11T11:42:32.201Z,0.50
2023-04-11T11:47:42.258Z,0.40
2023-04-11T11:52:44.676Z,0.50
2023-04-11T11:57:47.559Z,0.60
2023-04-11T12:02:52.366Z,1.15
2023-04-11T12:07:55.527Z,0.45
2023-04-11T12:12:57.040Z,0.65
2023-04-11T12:17:58.410Z,1.33
2023-04-11T12:22:59.797Z,0.88
2023-04-11T12:28:01.238Z,0.73
2023-04-11T12:33:03.138Z,0.60
2023-04-11T12:38:04.892Z,0.45
2023-04-11T12:43:06.344Z,0.38
2023-04-11T12:48:08.191Z,0.40
2023-04-11T12:53:10.345Z,0.20
2023-04-11T12:58:11.830Z,0.45
2023-04-11T13:03:13.415Z,0.75
2023-04-11T13:08:15.470Z,1.20
2023-04-11T13:13:18.623Z,0.60
2023-04-11T13:18:20.408Z,0.93
2023-04-11T13:23:21.781Z,0.82
2023-04-11T13:28:23.581Z,1.35
2023-04-11T13:33:24.952Z,0.50
2023-04-11T13:38:26.282Z,0.30
2023-04-11T13:43:28.496Z,0.50
2023-04-11T13:48:29.916Z,0.38
2023-04-11T13:53:31.295Z,0.60
2023-04-11T13:58:32.920Z,0.45
2023-04-11T14:03:34.559Z,0.40
2023-04-11T14:08:36.854Z,0.38
2023-04-11T14:13:38.271Z,0.82
2023-04-11T14:18:39.629Z,0.57
2023-04-11T14:23:41.880Z,0.50
2023-04-11T14:28:43.241Z,0.52
2023-04-11T14:33:44.578Z,0.45
2023-04-11T14:38:46.108Z,0.60
2023-04-11T14:43:48.426Z,0.73
2023-04-11T14:48:49.752Z,0.98
2023-04-11T14:53:55.331Z,0.50
2023-04-11T14:58:57.008Z,0.38
2023-04-11T15:03:58.785Z,0.77
2023-04-11T15:09:01.306Z,0.68
2023-04-11T15:14:02.847Z,0.40
2023-04-11T15:19:04.434Z,0.90
2023-04-11T15:24:07.331Z,0.43
2023-04-11T15:29:13.839Z,0.60
2023-04-11T15:34:15.232Z,0.93
2023-04-11T15:39:17.057Z,0.35
2023-04-11T15:44:18.478Z,0.40
2023-04-11T15:49:19.921Z,0.55
2023-04-11T15:54:21.295Z,0.60
2023-04-11T15:59:24.892Z,0.50
2023-04-11T16:04:27.258Z,0.88
2023-04-11T16:09:28.923Z,0.75
2023-04-11T16:14:30.330Z,0.82
2023-04-11T16:19:31.878Z,0.60
2023-04-11T16:24:33.639Z,0.75
2023-04-11T16:29:35.360Z,0.63
2023-04-11T16:34:36.933Z,0.52
2023-04-11T16:39:38.389Z,1.30
2023-04-11T16:44:39.884Z,0.40
2023-04-11T16:49:46.986Z,0.65
2023-04-11T16:54:48.769Z,0.57
2023-04-11T16:59:50.981Z,0.52
2023-04-11T17:04:52.401Z,0.68
2023-04-11T17:09:53.996Z,0.50
2023-04-11T17:14:56.100Z,0.80
2023-04-11T17:19:57.506Z,0.63
2023-04-11T17:24:59.867Z,0.95
2023-04-11T17:30:02.619Z,0.60
2023-04-11T17:35:07.085Z,0.57
2023-04-11T17:40:15.244Z,1.05
2023-04-11T17:45:18.502Z,0.70
2023-04-11T17:50:20.282Z,0.50
2023-04-11T17:55:21.880Z,1.08
2023-04-11T18:00:23.404Z,0.73
2023-04-11T18:05:32.775Z,1.20
2023-04-11T18:10:34.261Z,0.80
2023-04-11T18:15:36.389Z,0.75
2023-04-11T18:20:38.063Z,0.80
2023-04-11T18:25:39.446Z,1.40
2023-04-11T18:30:41.028Z,0.82
2023-04-11T18:35:42.538Z,1.38
2023-04-11T18:40:44.155Z,1.17
2023-04-11T18:45:48.962Z,1.13
2023-04-11T18:51:00.386Z,0.88
2023-04-11T18:56:03.512Z,1.52
2023-04-11T19:01:14.859Z,1.70
2023-04-11T19:06:18.329Z,1.60
2023-04-11T19:11:19.864Z,1.50
2023-04-11T19:16:21.335Z,1.58
2023-04-11T19:21:23.854Z,1.65
2023-04-11T19:26:28.335Z,1.48
2023-04-11T19:31:32.368Z,1.75
2023-04-11T19:36:33.977Z,1.30
2023-04-11T19:41:35.526Z,1.30
2023-04-11T19:46:36.995Z,1.52
2023-04-11T19:51:39.481Z,2.17
2023-04-11T19:56:45.193Z,1.80
2023-04-11T20:01:46.750Z,1.23
2023-04-11T20:06:50.590Z,1.25
2023-04-11T20:11:52.106Z,1.27
2023-04-11T20:16:54.094Z,1.63
2023-04-11T20:21:55.922Z,1.90
2023-04-11T20:26:57.410Z,1.30
2023-04-11T20:32:01.465Z,1.55
2023-04-11T20:37:04.542Z,1.30
2023-04-11T20:42:10.556Z,1.50
2023-04-11T20:47:11.947Z,1.65
2023-04-11T20:52:13.530Z,1.38
2023-04-11T20:57:14.898Z,1.55
2023-04-11T21:02:17.198Z,1.55
2023-04-11T21:07:22.575Z,1.60
2023-04-11T21:12:23.930Z,1.40
2023-04-11T21:17:25.915Z,1.25
2023-04-11T21:22:27.446Z,1.45
2023-04-11T21:27:28.840Z,1.25
2023-04-11T21:32:30.318Z,0.70
2023-04-11T21:37:31.959Z,1.25
2023-04-11T21:42:33.459Z,1.20
2023-04-11T21:47:35.270Z,1.40
2023-04-11T21:52:36.778Z,1.80
2023-04-11T21:57:38.159Z,1.45
2023-04-11T22:02:40.515Z,1.20
2023-04-11T22:07:48.249Z,2.33
2023-04-11T22:12:49.733Z,1.85
2023-04-11T22:17:56.269Z,1.80
2023-04-11T22:22:57.939Z,1.60
2023-04-11T22:27:59.279Z,1.77
2023-04-11T22:33:01.774Z,1.58
2023-04-11T22:38:03.780Z,2.55
2023-04-11T22:43:05.647Z,1.95
2023-04-11T22:48:07.278Z,1.55
2023-04-11T22:53:13.994Z,1.45
2023-04-11T22:58:15.522Z,1.15
2023-04-11T23:03:18.301Z,1.73
2023-04-11T23:08:19.700Z,2.17
2023-04-11T23:13:21.044Z,1.50
2023-04-11T23:18:22.530Z,1.60
2023-04-11T23:23:24.307Z,1.27
2023-04-11T23:28:25.776Z,1.20
2023-04-11T23:33:27.183Z,1.08
2023-04-11T23:38:28.950Z,1.40
2023-04-11T23:43:30.539Z,1.13
2023-04-11T23:48:32.137Z,2.92
2023-04-11T23:53:34.194Z,1.85
2023-04-11T23:58:35.971Z,1.77
